Time;durP1;ratioP1;P1;durP2;ratioP2;P2;SDS_P1;SDS_P2;PMS_P1;PMS_P2;Temp;Humidity;BMP_temperature;BMP_pressure;BME280_temperature;BME280_humidity;BME280_pressure;Samples;Min_cycle;Max_cycle;Signal;HPM_P1;HPM_P2
2022/04/21 00:00:54;;;;;;;7.53;3.38;;;7.90;1.00;;;7.87;96.50;98597.88;4979913;28;129939;-68
2022/04/21 00:03:22;;;;;;;7.60;3.72;;;7.90;1.00;;;7.95;96.03;98590.88;4985616;28;129863;-67
2022/04/21 00:05:51;;;;;;;8.23;3.72;;;7.90;1.00;;;7.98;96.82;98606.47;4999987;28;120327;-69
2022/04/21 00:08:20;;;;;;;8.43;3.65;;;7.90;1.00;;;7.90;97.09;98595.34;5000143;28;119487;-68
2022/04/21 00:10:49;;;;;;;8.30;3.80;;;7.80;1.00;;;7.95;97.09;98601.69;5017112;28;130534;-69
2022/04/21 00:13:19;;;;;;;7.18;3.40;;;7.80;1.00;;;7.99;97.17;98591.84;4999422;28;129797;-68
2022/04/21 00:15:47;;;;;;;6.45;3.65;;;7.70;1.00;;;7.86;97.36;98591.66;5000007;28;119615;-69
2022/04/21 00:18:16;;;;;;;7.20;3.75;;;7.70;1.00;;;7.95;97.20;98585.47;4999888;28;119482;-69
2022/04/21 00:20:44;;;;;;;11.85;4.43;;;7.70;1.00;;;7.87;98.28;98589.78;4998310;28;129883;-68
2022/04/21 00:23:26;;;;;;;6.07;3.60;;;7.70;1.00;;;8.02;97.81;98585.81;4999461;28;129428;-68
2022/04/21 00:25:55;;;;;;;6.50;3.53;;;7.60;1.00;;;7.80;98.48;98574.03;5015372;28;119652;-70
2022/04/21 00:28:26;;;;;;;7.13;3.88;;;7.60;1.00;;;7.86;98.85;98580.06;4999775;28;119398;-70
2022/04/21 00:30:54;;;;;;;9.90;3.70;;;7.60;1.00;;;7.73;99.39;98581.81;5017590;28;129540;-66
2022/04/21 00:33:22;;;;;;;8.48;4.20;;;7.50;1.00;;;7.74;99.40;98581.50;5001333;28;129790;-68
2022/04/21 00:35:51;;;;;;;9.90;4.70;;;7.50;1.00;;;7.75;100.00;98579.59;5001630;28;118882;-70
2022/04/21 00:38:19;;;;;;;8.07;4.10;;;7.50;1.00;;;7.80;99.95;98574.03;5001857;28;118354;-69
2022/04/21 00:40:49;;;;;;;7.10;4.07;;;7.50;1.00;;;7.73;100.00;98568.31;5000985;28;129599;-67
2022/04/21 00:43:19;;;;;;;6.60;3.75;;;7.40;1.00;;;7.59;100.00;98567.63;4999268;28;130056;-68
2022/04/21 00:45:51;;;;;;;8.77;3.88;;;7.40;1.00;;;7.50;100.00;98565.69;4998278;28;122258;-70
2022/04/21 00:48:20;;;;;;;8.30;3.95;;;7.40;1.00;;;7.55;100.00;98567.47;4999564;28;122173;-69
2022/04/21 00:50:48;;;;;;;8.10;3.97;;;7.40;1.00;;;7.52;100.00;98563.47;4998700;28;129924;-69
2022/04/21 00:53:17;;;;;;;6.97;4.35;;;7.40;1.00;;;7.43;100.00;98570.75;4999265;28;129719;-70
2022/04/21 00:55:45;;;;;;;8.43;4.40;;;7.30;1.00;;;7.54;100.00;98568.56;4999671;28;120011;-69
2022/04/21 00:58:13;;;;;;;6.70;3.90;;;7.30;1.00;;;7.56;100.00;98572.53;4999397;28;119424;-69
2022/04/21 01:00:42;;;;;;;7.20;4.00;;;7.30;1.00;;;7.67;100.00;98574.97;4998850;28;130019;-69
2022/04/21 01:03:14;;;;;;;9.80;4.18;;;7.30;1.00;;;7.62;100.00;98575.09;5002980;28;129510;-69
2022/04/21 01:05:43;;;;;;;9.23;4.45;;;7.30;1.00;;;7.59;100.00;98575.72;5004750;28;118707;-69
2022/04/21 01:08:12;;;;;;;6.50;4.10;;;7.30;1.00;;;7.47;100.00;98565.53;5004790;28;119673;-70
2022/04/21 01:10:42;;;;;;;8.60;4.43;;;7.20;1.00;;;7.53;100.00;98565.06;5000907;28;129800;-68
2022/04/21 01:13:12;;;;;;;7.88;3.97;;;7.20;1.00;;;7.48;100.00;98567.94;5004188;28;129372;-68
2022/04/21 01:15:43;;;;;;;7.10;4.13;;;7.20;1.00;;;7.42;100.00;98562.97;5002995;28;119814;-69
2022/04/21 01:18:12;;;;;;;8.07;4.28;;;7.20;1.00;;;7.40;100.00;98565.97;5002917;28;119905;-69
2022/04/21 01:20:43;;;;;;;6.45;4.25;;;7.20;1.00;;;7.30;100.00;98564.38;5002373;28;130992;-70
2022/04/21 01:23:11;;;;;;;8.98;4.20;;;7.20;1.00;;;7.27;100.00;98550.72;4987553;28;128041;-70
2022/04/21 01:25:40;;;;;;;6.32;4.00;;;7.10;1.00;;;7.36;100.00;98554.22;5002641;28;119681;-68
2022/04/21 01:28:10;;;;;;;7.25;4.70;;;7.20;5.40;;;7.13;100.00;98556.22;5002482;28;119599;-69
2022/04/21 01:30:39;;;;;;;8.00;4.50;;;7.10;12.20;;;7.29;100.00;98553.88;5002197;28;130682;-69
2022/04/21 01:33:08;;;;;;;6.93;4.05;;;7.10;20.00;;;7.29;100.00;98553.88;5003995;28;129650;-68
2022/04/21 01:35:36;;;;;;;9.05;4.22;;;7.10;26.40;;;7.26;100.00;98549.09;5001434;28;122008;-70
2022/04/21 01:41:11;;;;;;;8.40;4.55;;;7.10;31.00;;;7.11;100.00;98545.72;5004810;28;129728;-70
2022/04/21 01:43:43;;;;;;;7.88;4.43;;;7.10;30.70;;;7.12;100.00;98549.22;5006182;28;129903;-70
2022/04/21 01:46:12;;;;;;;9.63;4.85;;;7.10;27.70;;;7.16;100.00;98539.41;5005484;28;120321;-71
2022/04/21 01:48:41;;;;;;;9.27;4.78;;;7.10;29.60;;;7.19;100.00;98544.16;5005016;28;119646;-71
2022/04/21 01:51:09;;;;;;;9.68;5.45;;;7.10;32.70;;;7.23;100.00;98549.72;5001948;28;129899;-72
2022/04/21 01:53:39;;;;;;;12.60;5.32;;;7.10;31.50;;;7.27;100.00;98545.31;5002140;28;130851;-67
2022/04/21 01:56:09;;;;;;;9.23;5.15;;;7.10;32.10;;;7.25;100.00;98542.94;5004086;28;118902;-70
2022/04/21 01:58:37;;;;;;;9.32;4.80;;;7.20;26.40;;;7.26;100.00;98527.53;5002273;28;119567;-67
2022/04/21 02:01:06;;;;;;;9.13;4.35;;;7.20;21.80;;;7.23;100.00;98533.53;5000709;28;129738;-70
2022/04/21 02:03:34;;;;;;;7.93;5.00;;;7.20;19.10;;;7.29;100.00;98521.50;5001742;28;129513;-71
2022/04/21 02:06:03;;;;;;;8.95;5.18;;;7.20;21.90;;;7.27;100.00;98529.91;5000804;28;119631;-70
2022/04/21 02:08:31;;;;;;;7.70;4.95;;;7.10;23.20;;;7.30;100.00;98518.47;5001949;28;119356;-69
2022/04/21 02:11:01;;;;;;;6.90;4.47;;;7.10;25.00;;;7.28;100.00;98520.72;5001555;28;130224;-71
2022/04/21 02:13:30;;;;;;;8.77;4.93;;;7.10;23.90;;;7.32;100.00;98526.28;5000788;28;129756;-70
2022/04/21 02:15:58;;;;;;;10.50;5.25;;;7.10;27.10;;;7.37;100.00;98526.16;5001737;28;119506;-71
2022/04/21 02:18:26;;;;;;;9.02;5.70;;;7.10;33.40;;;7.33;100.00;98527.88;5002151;28;120419;-70
2022/04/21 02:20:55;;;;;;;8.70;4.80;;;7.10;38.80;;;7.44;100.00;98515.66;5001134;28;130399;-69
2022/04/21 02:23:23;;;;;;;7.38;5.05;;;7.10;47.00;;;7.26;100.00;98524.81;5001167;28;129733;-70
2022/04/21 02:25:51;;;;;;;10.25;5.82;;;7.10;47.80;;;7.12;100.00;98517.66;5000414;28;121925;-70
2022/04/21 02:28:22;;;;;;;9.07;5.28;;;7.10;36.30;;;7.18;100.00;98510.19;5001577;28;122349;-70
2022/04/21 02:30:50;;;;;;;11.85;5.43;;;7.10;19.90;;;7.13;100.00;98510.34;5000982;28;130229;-70
2022/04/21 02:33:18;;;;;;;7.80;4.70;;;7.10;13.90;;;7.20;100.00;98511.47;5001193;28;129999;-70
2022/04/21 02:35:47;;;;;;;9.95;4.60;;;7.10;3.80;;;7.20;100.00;98505.28;5001602;28;120362;-70
2022/04/21 02:38:15;;;;;;;9.73;5.47;;;7.20;1.00;;;7.16;100.00;98504.31;5001462;28;120221;-70
2022/04/21 02:40:45;;;;;;;8.35;5.00;;;7.20;1.00;;;7.22;100.00;98505.78;5002697;28;129642;-70
2022/04/21 02:43:13;;;;;;;7.57;4.88;;;7.20;1.00;;;7.18;100.00;98505.59;5001263;28;129137;-69
2022/04/21 02:45:44;;;;;;;8.32;4.55;;;7.20;1.00;;;7.10;100.00;98498.25;5004147;28;120439;-70
2022/04/21 02:48:12;;;;;;;9.70;4.30;;;7.20;1.00;;;7.27;100.00;98510.22;5019939;28;118839;-70
2022/04/21 02:50:42;;;;;;;8.25;4.25;;;7.30;1.00;;;7.33;100.00;98507.06;4999347;28;130296;-68
2022/04/21 02:53:10;;;;;;;8.63;4.80;;;7.30;1.00;;;7.19;100.00;98509.88;5000864;28;130008;-68
2022/04/21 02:58:23;;;;;;;8.45;4.32;;;7.30;1.00;;;7.18;100.00;98502.91;4970006;28;119307;-69
2022/04/21 03:00:52;;;;;;;7.53;4.10;;;7.20;1.00;;;7.13;100.00;98508.44;5000760;28;130933;-69
2022/04/21 03:03:21;;;;;;;7.85;4.38;;;7.30;1.00;;;7.18;100.00;98513.72;5000539;28;129412;-71
2022/04/21 03:05:50;;;;;;;6.97;4.15;;;7.30;1.00;;;7.15;100.00;98517.03;5000819;28;120505;-68
2022/04/21 03:08:18;;;;;;;8.73;3.80;;;7.30;1.00;;;7.08;100.00;98510.50;5001033;28;119223;-70
2022/04/21 03:10:46;;;;;;;7.03;4.03;;;7.30;1.00;;;7.11;100.00;98505.25;5002477;28;129633;-68
2022/04/21 03:13:15;;;;;;;9.27;4.97;;;7.30;1.00;;;7.15;100.00;98510.81;5000705;28;130266;-69
2022/04/21 03:15:43;;;;;;;6.68;4.30;;;7.30;1.00;;;7.11;100.00;98516.06;5001622;28;121266;-68
2022/04/21 03:18:13;;;;;;;6.60;3.97;;;7.30;1.00;;;7.11;100.00;98510.66;5000483;28;122108;-69
2022/04/21 03:26:17;;;;;;;8.23;4.15;;;7.30;1.00;;;7.14;100.00;98518.13;4999728;28;119526;-71
2022/04/21 03:28:45;;;;;;;10.05;4.32;;;7.30;1.00;;;7.33;100.00;98511.69;5000823;28;119723;-70
2022/04/21 03:31:14;;;;;;;6.22;4.10;;;7.30;1.00;;;7.40;100.00;98505.81;5000377;28;129853;-69
2022/04/21 03:33:44;;;;;;;8.70;4.22;;;7.30;1.00;;;7.34;100.00;98505.19;5015858;28;130837;-69
2022/04/21 03:36:14;;;;;;;8.77;4.18;;;7.30;1.00;;;7.34;100.00;98499.78;5000627;28;119592;-70
2022/04/21 03:38:42;;;;;;;7.88;3.92;;;7.30;1.00;;;7.35;100.00;98499.47;5002380;28;119151;-70
2022/04/21 03:41:11;;;;;;;6.85;3.97;;;7.30;1.00;;;7.50;100.00;98500.91;4999095;28;131202;-70
2022/04/21 03:43:40;;;;;;;6.60;3.92;;;7.30;1.00;;;7.38;100.00;98492.63;4999945;28;131052;-68
2022/04/21 03:46:08;;;;;;;7.07;4.20;;;7.20;1.00;;;7.27;100.00;98502.13;5002368;28;119827;-69
2022/04/21 03:48:37;;;;;;;8.05;4.35;;;7.20;1.00;;;7.24;100.00;98498.16;5000726;28;119880;-69
2022/04/21 03:51:07;;;;;;;6.97;3.47;;;7.20;1.00;;;7.27;100.00;98502.13;5002233;28;129874;-69
2022/04/21 03:53:35;;;;;;;8.65;4.47;;;7.20;1.00;;;7.30;100.00;98501.50;5000140;28;129513;-70
2022/04/21 03:56:04;;;;;;;7.07;3.92;;;7.20;1.00;;;7.26;100.00;98500.53;5000249;28;119506;-69
2022/04/21 03:58:33;;;;;;;7.32;3.95;;;7.20;1.00;;;7.23;100.00;98503.84;5000753;28;119352;-71
2022/04/21 04:01:01;;;;;;;9.73;3.80;;;7.20;1.00;;;7.39;100.00;98494.22;4999466;28;130539;-69
2022/04/21 04:03:29;;;;;;;6.13;3.83;;;7.30;1.00;;;7.55;100.00;98497.25;4996890;28;129254;-70
2022/04/21 04:05:58;;;;;;;7.80;4.15;;;7.30;1.00;;;7.55;100.00;98492.66;5000046;28;121633;-69
2022/04/21 04:11:14;;;;;;;7.18;3.55;;;7.30;1.00;;;7.49;100.00;98499.31;5000360;28;129534;-67
2022/04/21 04:13:43;;;;;;;9.15;3.92;;;7.40;1.00;;;7.53;100.00;98494.09;4999574;28;129448;-71
2022/04/21 04:16:13;;;;;;;6.32;3.75;;;7.40;1.00;;;7.69;99.88;98494.41;4998974;28;119733;-70
2022/04/21 04:18:41;;;;;;;8.18;3.50;;;7.50;1.00;;;7.74;99.13;98488.84;5001243;28;119008;-70
2022/04/21 04:21:12;;;;;;;6.50;3.50;;;7.50;1.00;;;7.79;99.18;98493.31;4998293;28;129814;-69
2022/04/21 04:23:42;;;;;;;6.22;3.03;;;7.50;1.00;;;7.94;98.10;98497.44;4999594;28;130545;-70
2022/04/21 04:26:11;;;;;;;6.45;3.72;;;7.60;1.00;;;7.68;98.64;98503.63;4999006;28;119864;-69
2022/04/21 04:28:39;;;;;;;6.93;3.60;;;7.50;1.00;;;7.80;98.29;98498.38;4999182;28;119386;-70
2022/04/21 04:31:08;;;;;;;4.82;2.95;;;7.60;1.00;;;7.73;96.46;98500.78;4998230;28;130406;-70
2022/04/21 04:33:36;;;;;;;4.53;2.78;;;7.50;1.00;;;7.64;97.13;98484.56;5001361;28;128201;-70
2022/04/21 04:36:05;;;;;;;7.13;3.60;;;7.60;1.00;;;7.76;96.83;98481.25;4999491;28;119569;-70
2022/04/21 04:38:33;;;;;;;8.02;2.97;;;7.60;1.00;;;7.61;96.02;98495.22;4999413;28;119445;-70
2022/04/21 04:42:16;;;;;;;5.85;3.20;;;7.60;1.00;;;7.69;96.08;98486.31;5001282;28;129064;-68
2022/04/21 04:43:51;;;;;;;7.10;3.63;;;7.60;1.00;;;7.64;96.05;98494.59;5000250;28;129302;-67
2022/04/21 04:46:38;;;;;;;6.45;3.42;;;7.60;1.00;;;7.43;95.22;98495.16;4999433;28;119325;-69
2022/04/21 04:49:09;;;;;;;6.43;3.20;;;7.60;1.00;;;7.57;95.34;98495.03;5000214;28;119901;-72
2022/04/21 04:51:41;;;;;;;7.80;3.60;;;7.60;1.00;;;7.71;94.71;98494.88;4999133;28;129670;-66
2022/04/21 04:54:12;;;;;;;7.65;3.30;;;7.70;1.00;;;7.78;93.84;98495.22;4999172;28;129372;-70
2022/04/21 04:56:45;;;;;;;5.78;3.75;;;7.70;1.00;;;7.78;94.18;98500.63;4996428;28;121988;-69
2022/04/21 04:59:14;;;;;;;5.70;2.97;;;7.80;1.00;;;7.79;94.47;98494.13;5000571;28;121256;-70
2022/04/21 05:01:45;;;;;;;5.95;3.38;;;7.70;1.00;;;7.88;94.12;98503.03;4998559;28;129708;-70
2022/04/21 05:04:17;;;;;;;5.97;3.25;;;7.80;1.00;;;7.74;94.55;98494.25;4998942;28;130056;-70
2022/04/21 05:06:47;;;;;;;7.07;3.45;;;7.70;1.00;;;7.65;95.11;98498.84;4999249;28;119742;-69
2022/04/21 05:09:17;;;;;;;6.68;3.25;;;7.70;1.00;;;7.88;94.74;98505.72;4999195;28;119333;-70
2022/04/21 05:11:50;;;;;;;7.00;3.50;;;7.70;1.00;;;7.82;94.33;98498.88;5017514;28;129434;-70
2022/04/21 05:14:20;;;;;;;6.47;3.47;;;7.70;1.00;;;7.84;94.64;98493.97;4998075;28;129970;-70
2022/04/21 05:16:48;;;;;;;5.45;3.08;;;7.70;1.00;;;7.82;94.33;98489.97;5001142;28;118607;-71
2022/04/21 05:19:20;;;;;;;5.25;3.53;;;7.80;1.00;;;7.72;94.93;98497.28;4998628;28;119995;-68
2022/04/21 05:21:50;;;;;;;6.20;3.47;;;7.70;1.00;;;7.78;95.25;98492.53;4997638;28;130015;-71
2022/04/21 05:24:20;;;;;;;6.20;2.95;;;7.70;1.00;;;7.84;95.36;98504.75;4998718;28;130419;-70
2022/04/21 05:26:50;;;;;;;7.20;3.75;;;7.70;1.00;;;7.82;95.52;98496.19;4998984;28;119681;-70
2022/04/21 05:32:07;;;;;;;6.55;3.33;;;7.70;1.00;;;8.00;94.03;98501.59;4997729;28;130365;-68
2022/04/21 05:34:36;;;;;;;7.40;3.90;;;7.80;1.00;;;8.13;93.72;98495.19;5000418;28;129159;-71
2022/04/21 05:37:06;;;;;;;8.63;3.55;;;7.80;1.00;;;8.23;93.23;98505.69;4999084;28;120077;-70
2022/04/21 05:39:35;;;;;;;7.32;3.50;;;7.90;1.00;;;8.30;91.69;98499.00;4999289;28;119514;-70
2022/04/21 05:42:10;;;;;;;6.95;3.30;;;7.90;1.00;;;8.19;91.46;98504.72;4998587;28;130443;-69
2022/04/21 05:44:39;;;;;;;5.07;3.03;;;7.90;1.00;;;8.39;91.06;98503.28;4999859;28;129300;-69
2022/04/21 05:47:10;;;;;;;6.40;3.35;;;8.00;1.00;;;8.36;91.15;98497.72;4997852;28;122260;-69
2022/04/21 05:49:39;;;;;;;5.90;3.88;;;8.00;1.00;;;8.23;90.94;98499.50;5001970;28;122100;-68
2022/04/21 05:52:13;;;;;;;7.32;3.35;;;8.00;1.00;;;8.03;91.42;98503.66;5001654;28;129679;-68
2022/04/21 05:54:42;;;;;;;6.43;3.25;;;7.90;1.00;;;8.09;91.27;98505.06;5002075;28;130268;-69
2022/04/21 05:57:12;;;;;;;5.53;3.33;;;8.00;1.00;;;8.13;90.40;98506.00;5002132;28;119663;-68
2022/04/21 05:59:41;;;;;;;6.68;3.40;;;8.00;1.00;;;8.06;91.45;98508.41;5004153;28;119389;-69
2022/04/21 06:02:10;;;;;;;6.30;3.40;;;8.00;1.00;;;8.30;90.41;98507.13;5001370;28;129807;-68
2022/04/21 06:04:38;;;;;;;7.78;4.00;;;8.10;1.00;;;8.80;89.66;98506.53;5002090;28;129720;-69
2022/04/21 06:07:06;;;;;;;6.78;3.58;;;8.30;1.00;;;8.89;88.23;98507.31;5002030;28;120031;-70
2022/04/21 06:09:35;;;;;;;7.55;4.15;;;8.40;1.00;;;8.84;87.95;98507.50;5001981;28;119509;-68
2022/04/21 06:12:05;;;;;;;6.70;4.20;;;8.40;1.00;;;8.79;88.52;98516.56;5002000;28;129046;-68
2022/04/21 06:14:38;;;;;;;6.40;3.67;;;8.40;1.00;;;9.12;87.26;98513.25;5001498;28;130092;-70
2022/04/21 06:17:07;;;;;;;5.97;3.70;;;8.50;1.00;;;9.24;86.21;98514.47;5003868;28;118912;-68
2022/04/21 06:19:35;;;;;;;5.70;3.45;;;8.70;1.00;;;9.52;86.01;98520.22;5003680;28;118761;-69
2022/04/21 06:22:05;;;;;;;6.90;3.60;;;8.80;1.00;;;9.13;85.21;98520.28;5001352;28;130446;-68
2022/04/21 06:24:34;;;;;;;6.22;4.18;;;8.70;1.00;;;8.91;87.28;98529.44;5001256;28;129449;-68
2022/04/21 06:27:03;;;;;;;7.40;3.50;;;8.50;1.00;;;8.61;88.50;98531.25;5001650;28;119603;-70
2022/04/21 06:29:33;;;;;;;8.43;3.83;;;8.40;1.00;;;8.63;89.04;98529.84;5001730;28;120732;-67
2022/04/21 06:32:02;;;;;;;7.53;3.83;;;8.30;1.00;;;8.77;89.78;98523.41;5003233;28;129904;-68
2022/04/21 06:34:32;;;;;;;6.25;3.60;;;8.40;1.00;;;9.09;88.07;98532.84;5001431;28;130665;-69
2022/04/21 06:37:01;;;;;;;6.88;3.92;;;8.40;1.00;;;8.81;89.05;98529.78;5000324;28;121711;-68
2022/04/21 06:39:29;;;;;;;6.40;3.92;;;8.40;1.00;;;8.60;nan;98530.47;5000930;28;121640;-67
2022/04/21 06:41:57;;;;;;;10.48;3.95;;;8.20;1.00;;;8.39;91.31;98524.13;5001077;28;129893;-69
2022/04/21 06:50:01;;;;;;;7.95;4.07;;;8.20;1.00;;;8.54;91.17;98526.34;5001204;28;119611;-71
2022/04/21 06:52:32;;;;;;;7.75;4.97;;;8.20;1.00;;;8.74;91.04;98533.00;5003974;28;131532;-75
2022/04/21 06:55:00;;;;;;;9.15;5.15;;;8.30;1.00;;;9.19;89.19;98523.56;5000832;28;130044;-71
2022/04/21 06:57:29;;;;;;;12.82;5.03;;;8.40;1.00;;;9.19;88.16;98534.41;5003193;28;118266;-71
2022/04/21 06:59:58;;;;;;;6.70;4.22;;;8.50;1.00;;;9.37;88.05;98527.00;5000943;28;119530;-73
2022/04/21 07:02:32;;;;;;;6.95;3.67;;;8.60;1.00;;;9.06;87.67;98530.00;4999407;28;129877;-73
2022/04/21 07:05:04;;;;;;;7.65;4.43;;;8.50;1.00;;;8.80;89.67;98533.59;5000612;28;129607;-71
2022/04/21 07:07:33;;;;;;;10.18;4.20;;;8.50;1.00;;;8.98;89.63;98535.13;5000909;28;119447;-70
2022/04/21 07:10:02;;;;;;;8.07;4.05;;;8.50;1.00;;;9.13;88.58;98541.94;5000976;28;119990;-72
2022/04/21 07:12:31;;;;;;;7.20;3.38;;;8.60;1.00;;;9.23;88.42;98535.34;5000152;28;130508;-71
2022/04/21 07:15:01;;;;;;;7.60;3.33;;;8.60;1.00;;;9.43;87.65;98546.56;5000453;28;129932;-72
2022/04/21 07:17:31;;;;;;;6.68;3.65;;;8.80;1.00;;;9.35;87.48;98543.56;5000994;28;120205;-74
2022/04/21 07:20:00;;;;;;;9.00;3.97;;;8.70;1.00;;;9.20;88.98;98538.69;5001198;28;119367;-74
2022/04/21 07:22:28;;;;;;;8.75;3.90;;;8.70;1.00;;;8.94;89.26;98545.03;5000136;28;129868;-70
2022/04/21 07:24:58;;;;;;;6.57;3.63;;;8.60;1.00;;;8.99;90.09;98549.44;5000365;28;129586;-71
2022/04/21 07:27:27;;;;;;;6.38;3.70;;;8.60;1.00;;;8.96;89.96;98542.78;4999525;28;123167;-72
2022/04/21 07:29:56;;;;;;;6.88;4.22;;;8.60;1.00;;;9.21;89.70;98548.41;5000617;28;121718;-71
2022/04/21 07:32:25;;;;;;;8.88;4.35;;;8.60;1.00;;;9.76;87.54;98556.72;5001908;28;129671;-71
2022/04/21 07:34:55;;;;;;;8.30;4.28;;;8.90;1.00;;;9.20;86.95;98549.53;4997099;28;129580;-68
2022/04/21 07:37:24;;;;;;;8.18;3.95;;;8.70;1.00;;;8.62;89.29;98560.69;5002046;28;119250;-72
2022/04/21 07:39:52;;;;;;;8.82;4.40;;;8.50;1.00;;;8.49;92.38;98566.28;5000375;28;119568;-70
2022/04/21 07:42:21;;;;;;;7.72;4.55;;;8.30;1.00;;;8.44;92.94;98564.53;4999507;28;130595;-69
2022/04/21 07:44:50;;;;;;;7.75;4.28;;;8.30;1.00;;;8.35;92.95;98558.31;5001944;28;129982;-70
2022/04/21 07:47:19;;;;;;;9.15;4.90;;;8.20;1.00;;;8.23;94.62;98567.06;5001705;28;118990;-70
2022/04/21 07:49:46;;;;;;;6.68;4.45;;;8.10;1.00;;;8.35;95.15;98561.00;4999944;28;119674;-70
2022/04/21 07:55:17;;;;;;;7.50;4.40;;;8.00;1.00;;;7.91;98.65;98572.59;4999822;28;130382;-70
2022/04/21 07:57:48;;;;;;;8.85;5.20;;;7.80;1.00;;;8.00;98.58;98574.53;4999832;28;119462;-69
2022/04/21 08:00:19;;;;;;;9.13;4.60;;;7.80;1.00;;;8.01;98.91;98571.53;4999962;28;119480;-67
2022/04/21 08:02:49;;;;;;;8.05;4.93;;;7.80;1.00;;;8.24;98.47;98577.56;4999769;28;130126;-68
2022/04/21 08:05:19;;;;;;;10.10;5.55;;;7.90;1.00;;;8.47;96.12;98585.53;4999192;28;129386;-67
2022/04/21 08:07:50;;;;;;;9.30;4.28;;;7.90;1.00;;;8.87;94.86;98577.19;4999909;28;119827;-69
2022/04/21 08:10:19;;;;;;;10.10;4.68;;;8.20;1.00;;;8.69;93.99;98583.75;5000137;28;119457;-69
2022/04/21 08:12:51;;;;;;;6.47;3.83;;;8.20;1.00;;;8.66;94.87;98587.88;4998335;28;130564;-69
2022/04/21 08:15:25;;;;;;;8.80;5.05;;;8.20;1.00;;;9.52;92.59;98583.31;5000398;28;129664;-69
2022/04/21 08:17:56;;;;;;;6.40;4.30;;;8.70;1.00;;;9.84;89.94;98596.53;4997525;28;122388;-71
2022/04/21 08:20:27;;;;;;;8.70;4.05;;;8.90;1.00;;;9.29;89.77;98593.59;4999854;28;121978;-68
2022/04/21 08:22:58;;;;;;;9.13;4.35;;;8.80;1.00;;;9.95;87.83;98597.72;4999218;28;130168;-70
2022/04/21 08:33:44;;;;;;;10.45;4.38;;;9.30;1.00;;;10.65;83.49;98597.19;4999456;28;129972;-71
2022/04/21 08:36:13;;;;;;;8.80;3.90;;;9.50;1.00;;;10.53;81.46;98606.09;4998245;28;129413;-70
2022/04/21 08:38:43;;;;;;;8.30;3.83;;;9.50;1.00;;;10.67;81.62;98605.78;5001871;28;119150;-69
2022/04/21 08:41:18;;;;;;;9.27;5.13;;;9.70;1.00;;;11.24;79.17;98606.16;4985263;28;119378;-69
2022/04/21 08:43:47;;;;;;;6.10;3.67;;;10.00;1.00;;;10.87;79.68;98612.31;4997793;28;130257;-67
2022/04/21 08:46:20;;;;;;;6.93;4.22;;;9.80;1.00;;;10.78;78.90;98612.41;4999366;28;129885;-67
2022/04/21 08:48:51;;;;;;;7.65;3.75;;;9.80;1.00;;;11.21;78.45;98617.72;4999598;28;120075;-70
2022/04/21 08:51:20;;;;;;;9.32;3.92;;;10.10;1.00;;;11.17;78.13;98603.22;5001590;28;119246;-71
2022/04/21 08:53:51;;;;;;;8.30;3.95;;;10.10;1.00;;;11.17;77.41;98611.34;4998606;28;130235;-70
2022/04/21 08:56:21;;;;;;;9.27;3.63;;;10.00;1.00;;;10.65;78.61;98613.47;4998282;28;130246;-71
2022/04/21 08:58:49;;;;;;;7.57;4.13;;;9.90;1.00;;;10.26;79.54;98612.81;4998359;28;119646;-69
2022/04/21 09:01:20;;;;;;;6.72;3.90;;;9.60;1.00;;;10.24;80.35;98615.06;5001754;28;118235;-70
2022/04/21 09:03:49;;;;;;;7.07;4.25;;;9.50;1.00;;;10.29;80.56;98623.00;4999140;28;129716;-72
2022/04/21 09:06:18;;;;;;;7.05;4.07;;;9.60;1.00;;;9.92;81.35;98613.84;4999030;28;130031;-70
2022/04/21 09:08:48;;;;;;;8.10;4.28;;;9.50;1.00;;;10.43;80.66;98607.28;4998022;28;121954;-72
2022/04/21 09:11:18;;;;;;;5.65;3.58;;;9.70;1.00;;;10.25;79.81;98616.63;4998996;28;121720;-69
2022/04/21 09:13:47;;;;;;;9.70;4.07;;;9.70;1.00;;;10.24;80.43;98612.34;4999006;28;129805;-69
2022/04/21 09:16:20;;;;;;;9.23;4.75;;;9.70;1.00;;;10.18;80.66;98616.38;4999085;28;130004;-72
2022/04/21 09:18:49;;;;;;;6.75;3.42;;;9.60;1.00;;;10.34;79.08;98614.69;4999281;28;119671;-71
2022/04/21 09:21:18;;;;;;;5.28;3.40;;;9.70;1.00;;;10.36;78.55;98615.16;5000852;28;118935;-70
2022/04/21 09:23:48;;;;;;;7.60;4.18;;;9.70;1.00;;;10.60;79.31;98619.13;5000834;28;130632;-69
2022/04/21 09:26:21;;;;;;;6.55;3.95;;;9.80;1.00;;;10.27;79.13;98636.09;5002843;28;129396;-68
2022/04/21 09:28:56;;;;;;;8.68;3.92;;;9.70;1.00;;;10.36;79.73;98617.06;5004506;28;119514;-66
2022/04/21 09:31:27;;;;;;;7.35;3.65;;;9.80;1.00;;;10.85;76.82;98624.63;5002849;28;120140;-72
2022/04/21 09:33:56;;;;;;;6.70;3.75;;;10.00;1.00;;;11.21;75.48;98623.94;5002987;28;129325;-71
2022/04/21 09:36:25;;;;;;;7.53;3.63;;;10.30;1.00;;;11.42;74.67;98631.19;5017866;28;129730;-70
2022/04/21 09:39:01;;;;;;;6.32;4.10;;;10.40;1.00;;;11.00;75.89;98634.88;5002274;28;119683;-70
2022/04/21 09:41:32;;;;;;;7.97;4.05;;;10.10;1.00;;;10.49;78.25;98629.56;5002551;28;119745;-69
2022/04/21 09:46:54;;;;;;;8.20;4.22;;;9.70;1.00;;;10.12;80.33;98633.97;5002436;28;129628;-69
2022/04/21 09:49:36;;;;;;;7.70;4.20;;;9.60;1.00;;;10.28;80.10;98632.25;5002494;28;120185;-69
2022/04/21 09:52:05;;;;;;;6.75;4.20;;;9.70;1.00;;;10.31;80.14;98637.00;5004378;28;118427;-70
2022/04/21 09:54:35;;;;;;;6.95;4.13;;;9.70;1.00;;;10.19;79.75;98628.81;4987456;28;128664;-71
2022/04/21 09:57:06;;;;;;;7.43;3.85;;;9.60;1.00;;;10.34;80.29;98636.38;5001972;28;129851;-69
2022/04/21 09:59:35;;;;;;;5.72;3.80;;;9.70;1.00;;;10.15;80.70;98638.75;5001046;28;121760;-70
2022/04/21 10:02:05;;;;;;;8.20;4.18;;;9.70;1.00;;;10.22;81.11;98633.56;5002042;28;121466;-70
2022/04/21 10:04:36;;;;;;;8.43;4.55;;;9.70;1.00;;;10.32;80.42;98638.59;5001663;28;130274;-69
2022/04/21 10:07:06;;;;;;;7.00;3.70;;;9.80;1.00;;;10.40;79.91;98645.13;4987111;28;128706;-70
2022/04/21 10:09:34;;;;;;;8.75;4.25;;;9.80;1.00;;;10.55;80.37;98647.25;5003506;28;118961;-68
2022/04/21 10:12:05;;;;;;;7.20;4.00;;;9.90;1.00;;;10.92;79.59;98652.81;5002030;28;119236;-70
2022/04/21 10:14:35;;;;;;;7.97;3.80;;;10.00;1.00;;;10.43;79.77;98653.38;5003530;28;129406;-71
2022/04/21 10:17:04;;;;;;;6.07;3.38;;;9.90;1.00;;;10.16;81.60;98651.16;5002087;28;129964;-69
2022/04/21 10:19:32;;;;;;;7.10;4.07;;;9.70;1.00;;;10.22;81.91;98649.84;5001462;28;119495;-69
2022/04/21 10:22:05;;;;;;;11.95;4.28;;;9.80;1.00;;;10.85;79.60;98657.22;5002334;28;120154;-71
2022/04/21 10:24:39;;;;;;;8.13;4.15;;;10.10;1.00;;;10.93;79.41;98656.31;5000382;28;130149;-69
2022/04/21 10:27:39;;;;;;;7.30;3.97;;;10.10;1.00;;;10.32;81.24;98662.22;5001332;28;129655;-71
2022/04/21 10:30:19;;;;;;;9.07;4.20;;;9.90;1.00;;;10.21;81.94;98667.25;5001825;28;120147;-71
2022/04/21 10:32:49;;;;;;;6.93;3.92;;;9.80;1.00;;;9.90;83.56;98671.88;5001604;28;120621;-71
2022/04/21 10:35:48;;;;;;;7.50;3.97;;;9.70;1.00;;;9.84;83.76;98669.69;5000759;28;129819;-70
2022/04/21 10:38:22;;;;;;;9.57;4.63;;;9.60;1.00;;;10.20;82.84;98679.22;4998256;28;129367;-69
2022/04/21 10:41:03;;;;;;;8.68;4.43;;;9.70;1.00;;;10.03;83.68;98669.25;5001683;28;119908;-70
2022/04/21 10:44:08;;;;;;;7.45;4.35;;;9.70;1.00;;;10.16;83.39;98675.56;5002043;28;119421;-69
2022/04/21 10:46:36;;;;;;;8.85;4.82;;;9.70;1.00;;;10.10;82.97;98682.28;5001118;28;129847;-69
2022/04/21 10:49:05;;;;;;;5.75;4.25;;;9.70;1.00;;;10.24;82.44;98686.34;5001094;28;129472;-71
2022/04/21 10:58:51;;;;;;;6.80;4.35;;;10.20;1.00;;;11.11;79.06;98694.94;5000785;28;130744;-69
2022/04/21 11:01:31;;;;;;;8.10;4.03;;;10.30;1.00;;;10.91;79.10;98691.16;5000526;28;129596;-70
2022/04/21 11:04:20;;;;;;;7.93;3.90;;;10.10;1.00;;;10.84;80.10;98690.91;5001280;28;119531;-71
2022/04/21 11:06:52;;;;;;;8.45;4.55;;;10.00;1.00;;;10.82;80.33;98699.38;5000221;28;119377;-69
2022/04/21 11:09:40;;;;;;;7.63;4.65;;;10.00;1.00;;;10.68;81.21;98705.06;4980470;28;131836;-69
2022/04/21 11:12:12;;;;;;;10.13;4.47;;;9.90;1.00;;;10.35;82.11;98697.66;4983242;28;129040;-71
2022/04/21 11:14:40;;;;;;;9.15;4.13;;;9.80;1.00;;;10.27;82.36;98709.31;4980265;28;120038;-70
2022/04/21 11:17:11;;;;;;;8.68;4.18;;;9.70;1.00;;;10.15;82.70;98704.59;4980643;28;119510;-70
2022/04/21 11:19:51;;;;;;;8.73;4.38;;;9.70;1.00;;;10.11;82.72;98713.72;4979650;28;129781;-70
2022/04/21 11:22:39;;;;;;;6.93;4.00;;;9.70;1.00;;;9.72;85.20;98705.59;4989996;28;129496;-70
2022/04/21 11:25:09;;;;;;;8.13;4.07;;;9.50;1.00;;;9.66;85.98;98701.47;4985414;28;118796;-69